Etusivu
METAR-TAF:

METAR-TAF

Lentoasemat :

Nuevo Laredo, Meksiko

Leveyspiiri: 27-26N, Pituuspiiri: 099-34W, korkeus merenpinnasta: 148 m

Tämänhetkinen sää

Tämä raportti tehtiin 5 tuntia ja 7 minuuttia sitten, kello 00.44 UTC
tyyntä
Lämpötila 25°C
Kosteus 21%
Ilmanpaine 1021 hPa
Näkyvyys: 16.1 km
selkeää

METAR: MMNL 300044Z 00000KT 10SM SKC 25/01 A3014

Aika: 00:51 (05:51 UTC)

Sääennuste

Tämä raportti tehtiin 12 tuntia ja 47 minuuttia sitten, kello 17.04 UTC
Ennuste voimassa 29. päivästä klo 18 UTC - 30. päivään klo 18 UTC
Tuuli 10 kn koillisesta
Näkyvyys: 10 km
selkeää
From 30. päivästä klo 0300 UTC
Tuuli 5 kn idästä/kaakosta
Näkyvyys: 10 km
selkeää
Ajoittain
30. päivästä klo 10 UTC - 30. päivään klo 14 UTC
Näkyvyys: 4.8 km
utua, usvaa
From 30. päivästä klo 1500 UTC
Tuuli 10 kn etelästä/kaakosta
Näkyvyys: 10 km
selkeää

TAF: MMNL 291704Z 2918/3018 04010KT P6SM SKC FM300300 12005KT P6SM SKC TEMPO 3010/3014 3SM BR HZ FM301500 15010KT P6SM SKC

Säähavainnot ja -ennusteet yli 4000 lentoasemalta (METAR- ja TAF-raportit).

Käytössä olevat sääasemat on merkitty karttaan keltaisilla ja punaisilla pisteillä.

Aseta hiiri pisteen päälle nähdäksesi sääaseman nimen.

Klikkaa sitten nähdäksesi säähavainnot ja -ennusteet.

Kartan vaihtaminen: klikkaa mustalla rastilla varustettuja vihreitä pisteitä, niin voit zoomata sisään; viivalla varustettua vihreää pistettä, niin voit zoomata ulos tai vihreitä nuolia, niin pääset viereisille kartoille.


METAR-TAF: